Houlka, Mississippi
Current Conditions -  °F | °C
As of 4:53 PM on Saturday 20 Dec 2014 (Local Time) from KTUP Reporting Station
Clear Clear  
Wind Chill: 48°   Ceiling: Unl
Heat Index: 48°   Visibility: 10mi
Dew Point: 33°   Wind: 3mph
Humidity: 56%   Direction: 70°ENE
Pressure: 30.2"   Gusts: NA
Location:  34.04°N, 89.02°W
Report Text: KTUP 202253Z 07003KT 10SM CLR 09/01 A3020 RMK AO2 SLP228 T00890006
Loading
Personal Weather Stations






























Interactive Weather Map New forecast layout! Learn more

10-Day Weather Forecast

Advertisements
Track Severe Weather on mobile